Etusivu
METAR-TAF:

METAR-TAF

Lentoasemat :

Saginaw County H.W. Browne Airport

Saginaw, Michigan, Yhdysvallat

Leveyspiiri: 43-26-00N, Pituuspiiri: 083-51-45W, korkeus merenpinnasta: 183 m

Tämänhetkinen sää

Tämä raportti tehtiin 29 minuuttia sitten, kello 04.55 UTC
tyyntä
Lämpötila -1°C
Kosteus 93%
Ilmanpaine 1007 hPa
Näkyvyys: 6.4 km
selkeää
utua

METAR: KHYX 190455Z AUTO 00000KT 4SM BR CLR M01/M02 A2974 RMK AO2

Aika: 00:24 (05:24 UTC)


TAF: puuttuu

Säähavainnot ja -ennusteet yli 4000 lentoasemalta (METAR- ja TAF-raportit).

Käytössä olevat sääasemat on merkitty karttaan keltaisilla ja punaisilla pisteillä.

Aseta hiiri pisteen päälle nähdäksesi sääaseman nimen.

Klikkaa sitten nähdäksesi säähavainnot ja -ennusteet.

Kartan vaihtaminen: klikkaa mustalla rastilla varustettuja vihreitä pisteitä, niin voit zoomata sisään; viivalla varustettua vihreää pistettä, niin voit zoomata ulos tai vihreitä nuolia, niin pääset viereisille kartoille.


METAR-TAF: